createdAt,value
2023-04-02T00:01:23.005Z,0.60
2023-04-02T00:03:54.055Z,0.63
2023-04-02T00:06:32.469Z,1.05
2023-04-02T00:09:15.990Z,0.90
2023-04-02T00:11:49.581Z,0.85
2023-04-02T00:14:36.504Z,0.75
2023-04-02T00:17:05.725Z,0.90
2023-04-02T00:19:44.676Z,0.90
2023-04-02T00:22:19.515Z,0.73
2023-04-02T00:24:50.097Z,0.80
2023-04-02T00:27:17.474Z,0.73
2023-04-02T00:29:54.406Z,0.73
2023-04-02T00:32:30.904Z,0.68
2023-04-02T00:34:59.163Z,0.80
2023-04-02T00:37:38.560Z,1.00
2023-04-02T00:40:19.558Z,0.57
2023-04-02T00:45:37.840Z,0.65
2023-04-02T00:48:52.860Z,0.88
2023-04-02T00:51:41.680Z,0.70
2023-04-02T00:54:15.838Z,1.00
2023-04-02T00:56:48.004Z,0.70
2023-04-02T00:59:26.755Z,0.70
2023-04-02T01:02:22.546Z,0.70
2023-04-02T01:05:02.832Z,0.90
2023-04-02T01:07:51.172Z,0.80
2023-04-02T01:10:31.613Z,0.60
2023-04-02T01:13:13.843Z,0.82
2023-04-02T01:15:51.437Z,0.70
2023-04-02T01:19:08.624Z,0.60
2023-04-02T01:22:11.930Z,0.47
2023-04-02T01:24:39.028Z,0.70
2023-04-02T01:27:18.594Z,0.57
2023-04-02T01:29:56.549Z,1.00
2023-04-02T01:32:27.062Z,0.93
2023-04-02T01:34:55.832Z,0.55
2023-04-02T01:37:51.838Z,1.02
2023-04-02T01:40:41.813Z,0.70
2023-04-02T01:43:29.978Z,0.52
2023-04-02T01:46:06.536Z,0.80
2023-04-02T01:48:33.799Z,0.60
2023-04-02T01:51:03.955Z,0.88
2023-04-02T01:53:31.497Z,0.83
2023-04-02T01:56:02.582Z,0.60
2023-04-02T01:58:32.658Z,0.75
2023-04-02T02:01:07.100Z,0.63
2023-04-02T02:03:35.456Z,0.60
2023-04-02T02:06:06.524Z,1.00
2023-04-02T02:08:45.922Z,1.10
2023-04-02T02:11:22.876Z,0.68
2023-04-02T02:14:00.728Z,0.75
2023-04-02T02:16:31.744Z,0.90
2023-04-02T02:19:03.079Z,0.75
2023-04-02T02:21:39.850Z,0.88
2023-04-02T02:24:31.571Z,0.60
2023-04-02T02:27:24.260Z,0.70
2023-04-02T02:30:11.324Z,0.98
2023-04-02T02:33:07.059Z,0.90
2023-04-02T02:35:50.811Z,0.80
2023-04-02T02:38:41.232Z,0.75
2023-04-02T02:41:37.472Z,0.73
2023-04-02T02:44:10.656Z,0.73
2023-04-02T02:46:46.697Z,0.73
2023-04-02T02:49:20.040Z,0.80
2023-04-02T02:52:03.461Z,0.88
2023-04-02T02:55:13.172Z,0.90
2023-04-02T02:57:59.859Z,0.70
2023-04-02T03:00:31.902Z,0.95
2023-04-02T03:03:00.735Z,1.17
2023-04-02T03:05:31.199Z,0.80
2023-04-02T03:08:10.474Z,0.95
2023-04-02T03:10:56.387Z,0.80
2023-04-02T03:13:29.233Z,1.17
2023-04-02T03:16:33.312Z,1.30
2023-04-02T03:19:30.096Z,1.02
2023-04-02T03:22:08.556Z,0.82
2023-04-02T03:25:16.221Z,1.33
2023-04-02T03:27:49.363Z,1.00
2023-04-02T03:30:43.921Z,1.20
2023-04-02T03:33:23.897Z,0.95
2023-04-02T03:36:30.318Z,1.00
2023-04-02T03:39:15.232Z,1.38
2023-04-02T03:42:08.487Z,1.15
2023-04-02T03:44:52.503Z,1.17
2023-04-02T03:48:19.113Z,0.98
2023-04-02T03:51:03.935Z,0.90
2023-04-02T03:53:32.452Z,0.85
2023-04-02T03:56:01.526Z,1.10
2023-04-02T03:58:47.656Z,1.48
2023-04-02T04:01:31.642Z,1.17
2023-04-02T04:04:10.384Z,1.13
2023-04-02T04:06:41.900Z,1.05
2023-04-02T04:09:29.654Z,1.13
2023-04-02T04:12:36.202Z,0.95
2023-04-02T04:15:22.199Z,0.90
2023-04-02T04:18:40.839Z,0.90
2023-04-02T04:21:30.810Z,0.80
2023-04-02T04:24:20.235Z,0.70
2023-04-02T04:27:17.087Z,0.70
2023-04-02T04:30:30.171Z,0.82
2023-04-02T04:33:23.059Z,0.65
2023-04-02T04:35:59.168Z,0.88
2023-04-02T04:38:35.312Z,0.55
2023-04-02T04:41:24.264Z,0.77
2023-04-02T04:44:17.230Z,0.57
2023-04-02T04:47:03.354Z,0.90
2023-04-02T04:49:41.638Z,0.82
2023-04-02T04:52:33.924Z,0.63
2023-04-02T04:55:03.521Z,0.50
2023-04-02T04:57:38.753Z,0.70
2023-04-02T05:00:30.624Z,0.80
2023-04-02T05:03:09.139Z,0.60
2023-04-02T05:05:40.636Z,0.60
2023-04-02T05:08:39.417Z,0.90
2023-04-02T05:11:41.212Z,0.80
2023-04-02T05:14:43.303Z,0.90
2023-04-02T05:18:11.005Z,1.00
2023-04-02T05:21:19.488Z,0.80
2023-04-02T05:24:24.905Z,0.70
2023-04-02T05:27:00.247Z,0.90
2023-04-02T05:29:36.119Z,0.90
2023-04-02T05:32:25.845Z,0.90
2023-04-02T05:34:56.004Z,1.10
2023-04-02T05:37:28.060Z,0.90
2023-04-02T05:40:11.000Z,0.73
2023-04-02T05:42:39.948Z,0.82
2023-04-02T05:45:13.515Z,0.90
2023-04-02T05:47:44.431Z,0.98
2023-04-02T05:50:30.563Z,1.10
2023-04-02T05:53:14.458Z,1.17
2023-04-02T05:56:11.218Z,1.10
2023-04-02T05:58:49.291Z,1.02
2023-04-02T06:01:47.209Z,1.45
2023-04-02T06:04:57.649Z,1.42
2023-04-02T06:10:25.735Z,1.15
2023-04-02T06:13:08.627Z,1.17
2023-04-02T06:15:39.970Z,1.10
2023-04-02T06:18:24.864Z,1.10
2023-04-02T06:20:53.559Z,1.10
2023-04-02T06:23:38.044Z,1.13
2023-04-02T06:26:31.611Z,1.05
2023-04-02T06:29:37.964Z,1.05
2023-04-02T06:32:08.882Z,1.00
2023-04-02T06:34:42.313Z,1.38
2023-04-02T06:37:36.206Z,1.35
2023-04-02T06:40:50.331Z,1.40
2023-04-02T06:44:01.028Z,1.17
2023-04-02T06:46:52.423Z,1.10
2023-04-02T06:49:51.024Z,1.45
2023-04-02T06:52:45.907Z,1.70
2023-04-02T06:55:48.857Z,1.73
2023-04-02T06:58:21.221Z,1.35
2023-04-02T07:00:50.951Z,1.45
2023-04-02T07:03:32.138Z,1.48
2023-04-02T07:06:05.272Z,1.52
2023-04-02T07:08:33.932Z,1.35
2023-04-02T07:11:01.278Z,1.35
2023-04-02T07:13:29.143Z,1.40
2023-04-02T07:15:56.840Z,2.00
2023-04-02T07:18:32.202Z,1.40
2023-04-02T07:21:01.852Z,1.48
2023-04-02T07:23:29.130Z,1.75
2023-04-02T07:25:57.400Z,1.50
2023-04-02T07:28:24.533Z,1.73
2023-04-02T07:30:52.297Z,1.33
2023-04-02T07:33:25.909Z,2.05
2023-04-02T07:35:55.654Z,1.70
2023-04-02T07:38:23.054Z,1.70
2023-04-02T07:40:50.359Z,1.60
2023-04-02T07:43:17.315Z,1.45
2023-04-02T07:45:44.372Z,1.33
2023-04-02T07:48:14.190Z,1.50
2023-04-02T07:50:41.744Z,1.60
2023-04-02T07:53:37.771Z,1.27
2023-04-02T07:56:05.944Z,1.50
2023-04-02T07:58:33.692Z,1.55
2023-04-02T08:01:01.675Z,1.42
2023-04-02T08:03:29.492Z,1.33
2023-04-02T08:05:58.749Z,1.40
2023-04-02T08:08:26.218Z,1.30
2023-04-02T08:10:53.280Z,1.33
2023-04-02T08:13:20.362Z,1.23
2023-04-02T08:15:48.270Z,1.30
2023-04-02T08:18:15.221Z,1.27
2023-04-02T08:20:42.196Z,1.45
2023-04-02T08:23:17.066Z,1.60
2023-04-02T08:25:47.076Z,1.15
2023-04-02T08:28:14.350Z,1.10
2023-04-02T08:30:41.757Z,1.13
2023-04-02T08:33:08.849Z,1.38
2023-04-02T08:35:36.332Z,1.35
2023-04-02T08:38:03.695Z,1.27
2023-04-02T08:40:41.635Z,1.27
2023-04-02T08:43:38.715Z,1.10
2023-04-02T08:46:19.019Z,1.48
2023-04-02T08:48:55.339Z,1.25
2023-04-02T08:51:30.743Z,1.23
2023-04-02T08:54:49.234Z,1.02
2023-04-02T08:57:44.395Z,1.17
2023-04-02T09:00:44.027Z,0.93
2023-04-02T09:03:40.287Z,1.00
2023-04-02T09:06:14.715Z,1.08
2023-04-02T09:08:46.677Z,1.10
2023-04-02T09:11:47.757Z,1.45
2023-04-02T09:14:21.456Z,1.10
2023-04-02T09:17:01.845Z,1.20
2023-04-02T09:19:40.878Z,1.08
2023-04-02T09:22:31.671Z,1.15
2023-04-02T09:25:02.458Z,1.13
2023-04-02T09:27:35.420Z,1.20
2023-04-02T09:30:30.343Z,1.15
2023-04-02T09:33:09.043Z,1.20
2023-04-02T09:35:57.319Z,1.05
2023-04-02T09:38:30.762Z,1.20
2023-04-02T09:41:04.635Z,0.98
2023-04-02T09:43:39.223Z,1.27
2023-04-02T09:46:24.465Z,1.42
2023-04-02T09:49:01.976Z,1.20
2023-04-02T09:51:34.705Z,1.50
2023-04-02T09:54:04.590Z,1.40
2023-04-02T09:56:35.806Z,1.13
2023-04-02T09:59:21.871Z,1.17
2023-04-02T10:01:54.879Z,1.38
2023-04-02T10:04:47.794Z,1.33
2023-04-02T10:07:36.938Z,1.35
2023-04-02T10:10:18.697Z,1.30
2023-04-02T10:13:18.657Z,1.55
2023-04-02T10:16:12.762Z,1.48
2023-04-02T10:18:58.778Z,1.30
2023-04-02T10:21:37.239Z,1.50
2023-04-02T10:24:15.672Z,1.70
2023-04-02T10:27:09.448Z,1.67
2023-04-02T10:30:05.267Z,2.15
2023-04-02T10:33:16.606Z,2.03
2023-04-02T10:36:30.271Z,1.45
2023-04-02T10:39:15.837Z,1.80
2023-04-02T10:41:58.166Z,1.65
2023-04-02T10:44:45.315Z,1.65
2023-04-02T10:47:27.359Z,1.88
2023-04-02T10:50:33.976Z,1.60
2023-04-02T10:53:21.174Z,1.30
2023-04-02T10:56:08.707Z,1.50
2023-04-02T10:58:57.548Z,1.58
2023-04-02T11:01:30.454Z,1.58
2023-04-02T11:04:01.833Z,1.60
2023-04-02T11:06:56.080Z,1.55
2023-04-02T11:09:37.653Z,1.58
2023-04-02T11:12:07.141Z,1.58
2023-04-02T11:14:34.248Z,1.15
2023-04-02T11:17:03.311Z,1.05
2023-04-02T11:19:35.996Z,1.33
2023-04-02T11:22:15.267Z,1.17
2023-04-02T11:24:53.424Z,1.30
2023-04-02T11:27:29.553Z,1.30
2023-04-02T11:30:06.737Z,0.98
2023-04-02T11:32:36.629Z,1.00
2023-04-02T11:35:31.225Z,0.88
2023-04-02T11:38:23.541Z,0.88
2023-04-02T11:40:58.762Z,1.00
2023-04-02T11:43:35.441Z,0.85
2023-04-02T11:46:41.977Z,0.85
2023-04-02T11:49:40.696Z,0.85
2023-04-02T11:52:46.335Z,0.70
2023-04-02T11:55:35.146Z,0.70
2023-04-02T11:58:07.672Z,0.50
2023-04-02T12:01:25.743Z,0.30
2023-04-02T12:04:26.473Z,0.30
2023-04-02T12:07:34.896Z,0.30
2023-04-02T12:10:24.857Z,0.28
2023-04-02T12:12:51.965Z,0.17
2023-04-02T12:15:46.955Z,0.20
2023-04-02T12:18:22.137Z,0.10
2023-04-02T12:20:56.241Z,0.30
2023-04-02T12:23:33.945Z,0.30
2023-04-02T12:26:06.441Z,0.20
2023-04-02T12:28:34.480Z,0.30
2023-04-02T12:31:17.504Z,0.15
2023-04-02T12:33:45.736Z,0.20
2023-04-02T12:36:14.370Z,0.20
2023-04-02T12:38:51.986Z,0.20
2023-04-02T12:41:30.285Z,0.38
2023-04-02T12:44:06.282Z,0.20
2023-04-02T12:46:35.462Z,0.30
2023-04-02T12:49:07.608Z,0.30
2023-04-02T12:51:36.981Z,0.10
2023-04-02T12:54:04.462Z,0.20
2023-04-02T12:56:31.610Z,0.25
2023-04-02T12:59:01.260Z,0.32
2023-04-02T13:01:31.669Z,0.10
2023-04-02T13:04:12.530Z,0.20
2023-04-02T13:06:47.424Z,0.10
2023-04-02T13:09:31.361Z,0.17
2023-04-02T13:11:59.115Z,0.20
2023-04-02T13:14:26.935Z,0.20
2023-04-02T13:16:54.830Z,0.20
2023-04-02T13:19:31.140Z,0.15
2023-04-02T13:22:01.950Z,0.13
2023-04-02T13:24:33.442Z,0.20
2023-04-02T13:27:03.813Z,0.32
2023-04-02T13:29:36.152Z,0.30
2023-04-02T13:32:07.720Z,0.20
2023-04-02T13:34:34.665Z,0.20
2023-04-02T13:37:01.670Z,0.20
2023-04-02T13:39:30.208Z,0.15
2023-04-02T13:42:04.444Z,0.15
2023-04-02T13:44:35.827Z,0.40
2023-04-02T13:47:03.085Z,0.30
2023-04-02T13:49:31.068Z,0.32
2023-04-02T13:52:04.185Z,0.40
2023-04-02T13:54:49.419Z,0.20
2023-04-02T13:57:17.344Z,0.30
2023-04-02T13:59:44.422Z,0.30
2023-04-02T14:02:18.805Z,0.45
2023-04-02T14:04:51.029Z,0.32
2023-04-02T14:07:55.459Z,0.30
2023-04-02T14:10:57.590Z,0.30
2023-04-02T14:13:45.363Z,0.40
2023-04-02T14:16:27.940Z,0.20
2023-04-02T14:19:12.514Z,0.20
2023-04-02T14:22:11.202Z,0.20
2023-04-02T14:25:02.239Z,0.50
2023-04-02T14:27:48.172Z,0.30
2023-04-02T14:30:53.567Z,0.20
2023-04-02T14:34:12.713Z,0.30
2023-04-02T14:36:56.453Z,0.30
2023-04-02T14:39:46.314Z,0.20
2023-04-02T14:42:40.398Z,0.35
2023-04-02T14:45:26.353Z,0.20
2023-04-02T14:48:25.646Z,0.30
2023-04-02T14:51:14.504Z,0.30
2023-04-02T14:53:56.352Z,0.35
2023-04-02T14:56:25.580Z,0.20
2023-04-02T14:59:34.291Z,0.47
2023-04-02T15:02:30.381Z,0.30
2023-04-02T15:05:04.218Z,0.30
2023-04-02T15:07:41.642Z,0.20
2023-04-02T15:10:30.859Z,0.20
2023-04-02T15:12:59.809Z,0.25
2023-04-02T15:15:58.675Z,0.30
2023-04-02T15:18:25.682Z,0.20
2023-04-02T15:21:29.155Z,0.22
2023-04-02T15:24:26.736Z,0.25
2023-04-02T15:27:07.152Z,0.30
2023-04-02T15:30:07.349Z,0.30
2023-04-02T15:32:34.266Z,0.13
2023-04-02T15:35:28.705Z,0.32
2023-04-02T15:38:09.108Z,0.25
2023-04-02T15:41:23.703Z,0.40
2023-04-02T15:44:30.238Z,0.30
2023-04-02T15:47:22.526Z,0.45
2023-04-02T15:50:36.168Z,0.30
2023-04-02T15:53:26.655Z,0.40
2023-04-02T15:56:17.847Z,0.30
2023-04-02T15:59:00.539Z,0.30
2023-04-02T16:01:49.126Z,0.30
2023-04-02T16:04:51.732Z,0.40
2023-04-02T16:07:30.169Z,0.28
2023-04-02T16:10:42.378Z,0.40
2023-04-02T16:13:36.937Z,0.30
2023-04-02T16:16:30.985Z,0.60
2023-04-02T16:19:34.492Z,0.40
2023-04-02T16:22:49.725Z,0.47
2023-04-02T16:25:25.291Z,0.57
2023-04-02T16:28:26.387Z,0.50
2023-04-02T16:34:15.792Z,0.63
2023-04-02T16:37:04.529Z,0.95
2023-04-02T16:39:43.790Z,0.68
2023-04-02T16:42:53.984Z,0.70
2023-04-02T16:45:47.669Z,0.90
2023-04-02T16:48:27.737Z,0.70
2023-04-02T16:51:24.832Z,0.80
2023-04-02T16:54:32.522Z,0.98
2023-04-02T16:57:33.854Z,1.48
2023-04-02T17:00:30.575Z,1.10
2023-04-02T17:03:12.551Z,0.88
2023-04-02T17:05:55.750Z,0.70
2023-04-02T17:08:30.866Z,0.60
2023-04-02T17:11:08.815Z,0.80
2023-04-02T17:13:51.374Z,0.93
2023-04-02T17:16:32.368Z,0.93
2023-04-02T17:21:30.961Z,0.90
2023-04-02T17:24:23.090Z,1.00
2023-04-02T17:27:05.078Z,0.95
2023-04-02T17:29:40.567Z,1.00
2023-04-02T17:32:26.018Z,0.98
2023-04-02T17:34:53.220Z,0.80
2023-04-02T17:37:34.828Z,0.88
2023-04-02T17:40:48.103Z,1.00
2023-04-02T17:43:36.498Z,0.93
2023-04-02T17:46:34.936Z,0.80
2023-04-02T17:49:23.047Z,0.93
2023-04-02T17:52:22.070Z,0.82
2023-04-02T17:55:22.098Z,0.82
2023-04-02T17:58:32.113Z,1.17
2023-04-02T18:01:30.358Z,0.93
2023-04-02T18:04:17.196Z,1.20
2023-04-02T18:07:03.505Z,1.02
2023-04-02T18:10:11.777Z,1.20
2023-04-02T18:13:12.428Z,0.95
2023-04-02T18:16:00.735Z,0.90
2023-04-02T18:18:58.324Z,1.10
2023-04-02T18:21:33.001Z,1.13
2023-04-02T18:24:21.199Z,1.35
2023-04-02T18:27:16.185Z,1.60
2023-04-02T18:30:26.669Z,1.30
2023-04-02T18:33:31.658Z,1.40
2023-04-02T18:36:22.720Z,1.45
2023-04-02T18:39:21.928Z,1.33
2023-04-02T18:42:51.066Z,1.30
2023-04-02T18:46:17.634Z,1.30
2023-04-02T18:49:19.503Z,1.65
2023-04-02T18:51:52.359Z,1.50
2023-04-02T18:54:41.193Z,1.80
2023-04-02T18:57:19.825Z,1.63
2023-04-02T19:00:17.445Z,1.80
2023-04-02T19:03:11.470Z,1.70
2023-04-02T19:06:08.922Z,1.38
2023-04-02T19:08:57.221Z,2.03
2023-04-02T19:11:29.722Z,2.20
2023-04-02T19:14:16.479Z,2.08
2023-04-02T19:17:08.624Z,1.70
2023-04-02T19:20:18.768Z,1.80
2023-04-02T19:23:22.289Z,1.65
2023-04-02T19:26:04.964Z,1.50
2023-04-02T19:29:16.247Z,1.77
2023-04-02T19:32:13.189Z,2.30
2023-04-02T19:34:56.487Z,2.03
2023-04-02T19:37:57.333Z,1.67
2023-04-02T19:41:11.581Z,1.90
2023-04-02T19:43:39.158Z,1.50
2023-04-02T19:46:06.344Z,1.70
2023-04-02T19:49:12.476Z,1.80
2023-04-02T19:51:39.542Z,1.50
2023-04-02T19:54:06.590Z,1.50
2023-04-02T19:56:33.869Z,1.55
2023-04-02T19:59:07.818Z,1.63
2023-04-02T20:01:44.413Z,1.50
2023-04-02T20:04:11.646Z,1.40
2023-04-02T20:06:38.759Z,1.50
2023-04-02T20:09:07.469Z,1.35
2023-04-02T20:11:37.110Z,1.60
2023-04-02T20:14:05.194Z,1.88
2023-04-02T20:16:32.920Z,1.58
2023-04-02T20:19:00.073Z,1.67
2023-04-02T20:21:27.524Z,1.40
2023-04-02T20:23:55.602Z,1.30
2023-04-02T20:26:23.229Z,1.55
2023-04-02T20:28:50.242Z,1.35
2023-04-02T20:31:18.889Z,1.70
2023-04-02T20:33:46.564Z,1.73
2023-04-02T20:36:17.774Z,1.55
2023-04-02T20:41:15.582Z,1.35
2023-04-02T20:43:42.708Z,1.88
2023-04-02T20:46:12.557Z,1.58
2023-04-02T20:48:40.216Z,1.48
2023-04-02T20:51:09.378Z,1.48
2023-04-02T20:53:38.181Z,1.35
2023-04-02T20:56:11.912Z,1.80
2023-04-02T20:58:40.570Z,1.30
2023-04-02T21:01:19.879Z,1.40
2023-04-02T21:03:48.234Z,1.30
2023-04-02T21:06:19.109Z,1.50
2023-04-02T21:08:46.804Z,1.52
2023-04-02T21:11:14.315Z,1.20
2023-04-02T21:13:43.919Z,1.55
2023-04-02T21:16:14.216Z,1.50
2023-04-02T21:18:41.247Z,1.17
2023-04-02T21:21:08.489Z,1.30
2023-04-02T21:23:35.716Z,1.00
2023-04-02T21:26:06.216Z,1.10
2023-04-02T21:28:34.712Z,1.27
2023-04-02T21:31:10.584Z,1.20
2023-04-02T21:33:41.789Z,1.00
2023-04-02T21:38:47.260Z,0.95
2023-04-02T21:41:24.307Z,1.00
2023-04-02T21:43:52.002Z,1.23
2023-04-02T21:46:23.104Z,0.98
2023-04-02T21:51:25.902Z,0.93
2023-04-02T21:53:54.189Z,1.02
2023-04-02T21:56:31.595Z,1.17
2023-04-02T21:59:01.685Z,1.15
2023-04-02T22:01:32.249Z,1.10
2023-04-02T22:04:02.342Z,1.27
2023-04-02T22:06:32.735Z,1.00
2023-04-02T22:09:04.026Z,1.00
2023-04-02T22:11:35.711Z,1.00
2023-04-02T22:14:04.001Z,1.10
2023-04-02T22:16:33.525Z,1.05
2023-04-02T22:19:02.963Z,1.10
2023-04-02T22:21:31.431Z,1.27
2023-04-02T22:24:04.509Z,1.30
2023-04-02T22:26:32.948Z,1.20
2023-04-02T22:29:04.842Z,0.98
2023-04-02T22:31:34.901Z,1.23
2023-04-02T22:34:03.861Z,1.10
2023-04-02T22:36:31.696Z,1.13
2023-04-02T22:39:00.498Z,1.25
2023-04-02T22:41:29.271Z,1.20
2023-04-02T22:43:57.285Z,1.20
2023-04-02T22:46:25.949Z,1.27
2023-04-02T22:48:54.213Z,1.00
2023-04-02T22:51:23.403Z,1.25
2023-04-02T22:53:52.482Z,1.50
2023-04-02T22:56:24.006Z,0.98
2023-04-02T22:58:51.182Z,1.30
2023-04-02T23:01:29.131Z,1.08
2023-04-02T23:03:56.620Z,1.20
2023-04-02T23:06:24.944Z,1.30
2023-04-02T23:08:52.839Z,1.20
2023-04-02T23:11:25.922Z,1.33
2023-04-02T23:13:56.596Z,1.05
2023-04-02T23:16:26.918Z,1.10
2023-04-02T23:18:55.397Z,1.10
2023-04-02T23:21:22.891Z,0.82
2023-04-02T23:23:51.283Z,1.20
2023-04-02T23:26:27.066Z,1.05
2023-04-02T23:28:54.022Z,1.30
2023-04-02T23:31:22.919Z,1.20
2023-04-02T23:33:51.810Z,1.00
2023-04-02T23:36:32.958Z,1.25
2023-04-02T23:41:38.504Z,0.85
2023-04-02T23:44:05.864Z,1.05
2023-04-02T23:46:33.980Z,1.00
2023-04-02T23:49:01.961Z,1.38
2023-04-02T23:51:32.047Z,1.23
2023-04-02T23:53:59.426Z,0.70
2023-04-02T23:56:26.980Z,1.05
2023-04-02T23:58:54.089Z,1.00
